sensor_id;sensor_type;location;lat;lon;timestamp;P1;durP1;ratioP1;P2;durP2;ratioP2
51252;SDS011;38936;47.808;19.936;2022-08-16T00:02:00;15.48;;;6.05;;
51252;SDS011;38936;47.808;19.936;2022-08-16T00:04:26;8.88;;;5.38;;
51252;SDS011;38936;47.808;19.936;2022-08-16T00:06:52;9.95;;;4.93;;
51252;SDS011;38936;47.808;19.936;2022-08-16T00:09:18;8.55;;;5.43;;
51252;SDS011;38936;47.808;19.936;2022-08-16T00:11:44;8.70;;;4.72;;
51252;SDS011;38936;47.808;19.936;2022-08-16T00:14:13;6.68;;;4.57;;
51252;SDS011;38936;47.808;19.936;2022-08-16T00:16:40;12.70;;;4.65;;
51252;SDS011;38936;47.808;19.936;2022-08-16T00:19:07;7.18;;;4.07;;
51252;SDS011;38936;47.808;19.936;2022-08-16T00:21:33;11.93;;;4.70;;
51252;SDS011;38936;47.808;19.936;2022-08-16T00:23:59;6.97;;;4.30;;
51252;SDS011;38936;47.808;19.936;2022-08-16T00:26:25;7.50;;;4.88;;
51252;SDS011;38936;47.808;19.936;2022-08-16T00:28:51;10.05;;;4.88;;
51252;SDS011;38936;47.808;19.936;2022-08-16T00:31:17;8.07;;;4.60;;
51252;SDS011;38936;47.808;19.936;2022-08-16T00:33:42;7.10;;;4.47;;
51252;SDS011;38936;47.808;19.936;2022-08-16T00:36:08;8.35;;;4.55;;
51252;SDS011;38936;47.808;19.936;2022-08-16T00:38:34;5.05;;;3.67;;
51252;SDS011;38936;47.808;19.936;2022-08-16T00:40:59;8.85;;;3.97;;
51252;SDS011;38936;47.808;19.936;2022-08-16T00:43:28;4.10;;;3.30;;
51252;SDS011;38936;47.808;19.936;2022-08-16T00:48:36;4.15;;;3.28;;
51252;SDS011;38936;47.808;19.936;2022-08-16T00:51:03;5.10;;;3.03;;
51252;SDS011;38936;47.808;19.936;2022-08-16T00:53:30;4.57;;;3.25;;
51252;SDS011;38936;47.808;19.936;2022-08-16T00:55:57;3.72;;;2.85;;
51252;SDS011;38936;47.808;19.936;2022-08-16T00:58:26;5.43;;;2.53;;
51252;SDS011;38936;47.808;19.936;2022-08-16T01:00:54;3.42;;;2.80;;
51252;SDS011;38936;47.808;19.936;2022-08-16T01:03:21;4.28;;;3.08;;
51252;SDS011;38936;47.808;19.936;2022-08-16T01:05:50;4.40;;;3.40;;
51252;SDS011;38936;47.808;19.936;2022-08-16T01:08:18;5.43;;;3.58;;
51252;SDS011;38936;47.808;19.936;2022-08-16T01:10:46;5.57;;;3.65;;
51252;SDS011;38936;47.808;19.936;2022-08-16T01:13:16;5.97;;;3.97;;
51252;SDS011;38936;47.808;19.936;2022-08-16T01:15:47;5.43;;;3.40;;
51252;SDS011;38936;47.808;19.936;2022-08-16T01:18:26;3.85;;;3.45;;
51252;SDS011;38936;47.808;19.936;2022-08-16T01:26:32;9.88;;;4.28;;
51252;SDS011;38936;47.808;19.936;2022-08-16T01:29:02;7.53;;;4.03;;
51252;SDS011;38936;47.808;19.936;2022-08-16T01:31:31;6.43;;;3.80;;
51252;SDS011;38936;47.808;19.936;2022-08-16T01:33:57;4.32;;;3.33;;
51252;SDS011;38936;47.808;19.936;2022-08-16T01:36:23;9.35;;;4.13;;
51252;SDS011;38936;47.808;19.936;2022-08-16T01:38:49;4.70;;;3.90;;
51252;SDS011;38936;47.808;19.936;2022-08-16T01:41:17;7.05;;;4.25;;
51252;SDS011;38936;47.808;19.936;2022-08-16T01:43:46;5.05;;;4.25;;
51252;SDS011;38936;47.808;19.936;2022-08-16T01:46:33;10.30;;;4.72;;
51252;SDS011;38936;47.808;19.936;2022-08-16T01:49:09;6.07;;;4.60;;
51252;SDS011;38936;47.808;19.936;2022-08-16T01:51:52;6.38;;;4.68;;
51252;SDS011;38936;47.808;19.936;2022-08-16T01:54:21;4.85;;;4.35;;
51252;SDS011;38936;47.808;19.936;2022-08-16T01:56:47;5.35;;;4.10;;
51252;SDS011;38936;47.808;19.936;2022-08-16T01:59:13;5.95;;;4.00;;
51252;SDS011;38936;47.808;19.936;2022-08-16T02:01:39;6.55;;;4.30;;
51252;SDS011;38936;47.808;19.936;2022-08-16T02:04:05;9.52;;;4.47;;
51252;SDS011;38936;47.808;19.936;2022-08-16T02:06:30;8.23;;;4.25;;
51252;SDS011;38936;47.808;19.936;2022-08-16T02:08:56;8.93;;;4.47;;
51252;SDS011;38936;47.808;19.936;2022-08-16T02:11:23;7.15;;;4.70;;
51252;SDS011;38936;47.808;19.936;2022-08-16T02:13:49;7.88;;;4.97;;
51252;SDS011;38936;47.808;19.936;2022-08-16T02:16:15;6.82;;;4.47;;
51252;SDS011;38936;47.808;19.936;2022-08-16T02:18:40;7.40;;;5.35;;
51252;SDS011;38936;47.808;19.936;2022-08-16T02:21:06;9.57;;;4.75;;
51252;SDS011;38936;47.808;19.936;2022-08-16T02:23:35;8.45;;;3.78;;
51252;SDS011;38936;47.808;19.936;2022-08-16T02:26:02;10.25;;;4.47;;
51252;SDS011;38936;47.808;19.936;2022-08-16T02:28:28;7.35;;;4.45;;
51252;SDS011;38936;47.808;19.936;2022-08-16T02:30:55;5.97;;;4.53;;
51252;SDS011;38936;47.808;19.936;2022-08-16T02:33:23;6.03;;;3.97;;
51252;SDS011;38936;47.808;19.936;2022-08-16T02:35:50;5.13;;;4.30;;
51252;SDS011;38936;47.808;19.936;2022-08-16T02:38:16;5.88;;;4.32;;
51252;SDS011;38936;47.808;19.936;2022-08-16T02:40:42;5.20;;;4.70;;
51252;SDS011;38936;47.808;19.936;2022-08-16T02:43:07;6.53;;;4.65;;
51252;SDS011;38936;47.808;19.936;2022-08-16T02:45:33;6.60;;;4.80;;
51252;SDS011;38936;47.808;19.936;2022-08-16T02:47:59;6.85;;;4.93;;
51252;SDS011;38936;47.808;19.936;2022-08-16T02:50:24;5.78;;;5.18;;
51252;SDS011;38936;47.808;19.936;2022-08-16T02:52:51;7.07;;;4.90;;
51252;SDS011;38936;47.808;19.936;2022-08-16T02:55:17;8.75;;;4.78;;
51252;SDS011;38936;47.808;19.936;2022-08-16T02:57:43;8.52;;;5.00;;
51252;SDS011;38936;47.808;19.936;2022-08-16T03:00:10;8.20;;;5.35;;
51252;SDS011;38936;47.808;19.936;2022-08-16T03:02:39;7.97;;;5.10;;
51252;SDS011;38936;47.808;19.936;2022-08-16T03:05:06;8.05;;;4.78;;
51252;SDS011;38936;47.808;19.936;2022-08-16T03:07:33;6.00;;;5.18;;
51252;SDS011;38936;47.808;19.936;2022-08-16T03:10:00;5.57;;;4.72;;
51252;SDS011;38936;47.808;19.936;2022-08-16T03:12:26;6.25;;;5.20;;
51252;SDS011;38936;47.808;19.936;2022-08-16T03:14:51;5.45;;;4.88;;
51252;SDS011;38936;47.808;19.936;2022-08-16T03:17:17;7.13;;;5.82;;
51252;SDS011;38936;47.808;19.936;2022-08-16T03:19:43;7.07;;;4.78;;
51252;SDS011;38936;47.808;19.936;2022-08-16T03:22:08;6.00;;;4.90;;
51252;SDS011;38936;47.808;19.936;2022-08-16T03:24:34;7.22;;;6.00;;
51252;SDS011;38936;47.808;19.936;2022-08-16T03:27:00;7.25;;;5.53;;
51252;SDS011;38936;47.808;19.936;2022-08-16T03:29:28;6.88;;;5.28;;
51252;SDS011;38936;47.808;19.936;2022-08-16T03:31:59;10.82;;;5.47;;
51252;SDS011;38936;47.808;19.936;2022-08-16T03:34:26;9.70;;;5.25;;
51252;SDS011;38936;47.808;19.936;2022-08-16T03:36:52;7.55;;;5.40;;
51252;SDS011;38936;47.808;19.936;2022-08-16T03:39:18;6.93;;;5.53;;
51252;SDS011;38936;47.808;19.936;2022-08-16T03:41:43;6.32;;;4.30;;
51252;SDS011;38936;47.808;19.936;2022-08-16T03:44:09;7.00;;;5.00;;
51252;SDS011;38936;47.808;19.936;2022-08-16T03:46:35;10.63;;;5.05;;
51252;SDS011;38936;47.808;19.936;2022-08-16T03:49:01;6.32;;;4.68;;
51252;SDS011;38936;47.808;19.936;2022-08-16T03:51:27;8.10;;;4.82;;
51252;SDS011;38936;47.808;19.936;2022-08-16T03:53:53;10.85;;;5.57;;
51252;SDS011;38936;47.808;19.936;2022-08-16T03:56:19;8.00;;;5.20;;
51252;SDS011;38936;47.808;19.936;2022-08-16T03:58:45;4.97;;;4.18;;
51252;SDS011;38936;47.808;19.936;2022-08-16T04:01:11;6.15;;;4.80;;
51252;SDS011;38936;47.808;19.936;2022-08-16T04:03:37;8.65;;;5.22;;
51252;SDS011;38936;47.808;19.936;2022-08-16T04:06:02;9.07;;;4.82;;
51252;SDS011;38936;47.808;19.936;2022-08-16T04:08:28;9.38;;;4.18;;
51252;SDS011;38936;47.808;19.936;2022-08-16T04:10:55;7.63;;;4.57;;
51252;SDS011;38936;47.808;19.936;2022-08-16T04:13:21;6.10;;;4.72;;
51252;SDS011;38936;47.808;19.936;2022-08-16T04:15:47;11.75;;;4.70;;
51252;SDS011;38936;47.808;19.936;2022-08-16T04:18:12;6.75;;;4.53;;
51252;SDS011;38936;47.808;19.936;2022-08-16T04:20:38;9.65;;;4.78;;
51252;SDS011;38936;47.808;19.936;2022-08-16T04:23:04;7.45;;;4.70;;
51252;SDS011;38936;47.808;19.936;2022-08-16T04:25:32;9.52;;;4.47;;
51252;SDS011;38936;47.808;19.936;2022-08-16T04:27:59;6.50;;;4.47;;
51252;SDS011;38936;47.808;19.936;2022-08-16T04:30:25;10.05;;;4.72;;
51252;SDS011;38936;47.808;19.936;2022-08-16T04:32:53;8.50;;;4.80;;
51252;SDS011;38936;47.808;19.936;2022-08-16T04:35:20;10.07;;;4.65;;
51252;SDS011;38936;47.808;19.936;2022-08-16T04:37:46;6.00;;;4.30;;
51252;SDS011;38936;47.808;19.936;2022-08-16T04:40:13;7.93;;;4.90;;
51252;SDS011;38936;47.808;19.936;2022-08-16T04:42:40;8.07;;;4.20;;
51252;SDS011;38936;47.808;19.936;2022-08-16T04:45:07;6.72;;;4.07;;
51252;SDS011;38936;47.808;19.936;2022-08-16T04:47:34;5.80;;;3.65;;
51252;SDS011;38936;47.808;19.936;2022-08-16T04:50:02;4.75;;;4.20;;
51252;SDS011;38936;47.808;19.936;2022-08-16T04:52:36;13.47;;;4.87;;
51252;SDS011;38936;47.808;19.936;2022-08-16T04:55:05;4.72;;;4.22;;
51252;SDS011;38936;47.808;19.936;2022-08-16T04:57:32;10.50;;;5.28;;
51252;SDS011;38936;47.808;19.936;2022-08-16T04:59:58;6.82;;;4.18;;
51252;SDS011;38936;47.808;19.936;2022-08-16T05:02:24;7.00;;;4.15;;
51252;SDS011;38936;47.808;19.936;2022-08-16T05:04:50;4.95;;;3.75;;
51252;SDS011;38936;47.808;19.936;2022-08-16T05:07:15;5.95;;;4.28;;
51252;SDS011;38936;47.808;19.936;2022-08-16T05:09:41;9.48;;;3.83;;
51252;SDS011;38936;47.808;19.936;2022-08-16T05:12:07;7.68;;;4.10;;
51252;SDS011;38936;47.808;19.936;2022-08-16T05:14:32;5.72;;;4.43;;
51252;SDS011;38936;47.808;19.936;2022-08-16T05:16:58;5.50;;;4.25;;
51252;SDS011;38936;47.808;19.936;2022-08-16T05:19:24;7.85;;;4.40;;
51252;SDS011;38936;47.808;19.936;2022-08-16T05:21:49;5.05;;;4.03;;
51252;SDS011;38936;47.808;19.936;2022-08-16T05:24:15;4.93;;;4.00;;
51252;SDS011;38936;47.808;19.936;2022-08-16T05:26:40;8.15;;;4.18;;
51252;SDS011;38936;47.808;19.936;2022-08-16T05:29:07;7.03;;;4.15;;
51252;SDS011;38936;47.808;19.936;2022-08-16T05:31:32;8.98;;;4.40;;
51252;SDS011;38936;47.808;19.936;2022-08-16T05:33:59;6.03;;;4.80;;
51252;SDS011;38936;47.808;19.936;2022-08-16T05:36:26;7.03;;;4.40;;
51252;SDS011;38936;47.808;19.936;2022-08-16T05:38:52;7.82;;;3.85;;
51252;SDS011;38936;47.808;19.936;2022-08-16T05:41:18;6.57;;;4.10;;
51252;SDS011;38936;47.808;19.936;2022-08-16T05:43:44;5.00;;;3.90;;
51252;SDS011;38936;47.808;19.936;2022-08-16T05:46:10;7.07;;;4.25;;
51252;SDS011;38936;47.808;19.936;2022-08-16T05:48:37;6.40;;;4.22;;
51252;SDS011;38936;47.808;19.936;2022-08-16T05:51:02;11.25;;;4.97;;
51252;SDS011;38936;47.808;19.936;2022-08-16T05:53:28;6.72;;;4.30;;
51252;SDS011;38936;47.808;19.936;2022-08-16T05:55:54;6.80;;;4.00;;
51252;SDS011;38936;47.808;19.936;2022-08-16T05:58:20;8.77;;;3.92;;
51252;SDS011;38936;47.808;19.936;2022-08-16T06:00:45;5.63;;;3.67;;
51252;SDS011;38936;47.808;19.936;2022-08-16T06:03:11;7.10;;;3.35;;
51252;SDS011;38936;47.808;19.936;2022-08-16T06:05:37;6.30;;;3.63;;
51252;SDS011;38936;47.808;19.936;2022-08-16T06:08:02;4.95;;;3.20;;
51252;SDS011;38936;47.808;19.936;2022-08-16T06:10:28;8.13;;;3.08;;
51252;SDS011;38936;47.808;19.936;2022-08-16T06:12:55;10.25;;;3.67;;
51252;SDS011;38936;47.808;19.936;2022-08-16T06:15:20;9.65;;;3.65;;
51252;SDS011;38936;47.808;19.936;2022-08-16T06:17:46;7.00;;;3.03;;
51252;SDS011;38936;47.808;19.936;2022-08-16T06:20:15;5.55;;;2.92;;
51252;SDS011;38936;47.808;19.936;2022-08-16T06:22:43;4.05;;;2.95;;
51252;SDS011;38936;47.808;19.936;2022-08-16T06:25:10;3.45;;;3.08;;
51252;SDS011;38936;47.808;19.936;2022-08-16T06:27:36;7.78;;;3.35;;
51252;SDS011;38936;47.808;19.936;2022-08-16T06:30:04;5.47;;;3.60;;
51252;SDS011;38936;47.808;19.936;2022-08-16T06:32:31;8.90;;;3.35;;
51252;SDS011;38936;47.808;19.936;2022-08-16T06:34:57;4.03;;;3.17;;
51252;SDS011;38936;47.808;19.936;2022-08-16T06:37:23;16.20;;;3.38;;
51252;SDS011;38936;47.808;19.936;2022-08-16T06:39:49;7.43;;;3.47;;
51252;SDS011;38936;47.808;19.936;2022-08-16T06:42:15;3.70;;;2.65;;
51252;SDS011;38936;47.808;19.936;2022-08-16T06:44:41;6.03;;;3.22;;
51252;SDS011;38936;47.808;19.936;2022-08-16T06:47:07;4.28;;;2.47;;
51252;SDS011;38936;47.808;19.936;2022-08-16T06:49:32;4.38;;;2.80;;
51252;SDS011;38936;47.808;19.936;2022-08-16T06:51:58;13.30;;;3.30;;
51252;SDS011;38936;47.808;19.936;2022-08-16T06:54:24;7.60;;;3.20;;
51252;SDS011;38936;47.808;19.936;2022-08-16T06:56:49;7.05;;;2.92;;
51252;SDS011;38936;47.808;19.936;2022-08-16T06:59:15;7.00;;;3.30;;
51252;SDS011;38936;47.808;19.936;2022-08-16T07:01:41;4.05;;;2.90;;
51252;SDS011;38936;47.808;19.936;2022-08-16T07:04:06;4.93;;;2.90;;
51252;SDS011;38936;47.808;19.936;2022-08-16T07:06:32;5.93;;;2.67;;
51252;SDS011;38936;47.808;19.936;2022-08-16T07:08:58;5.28;;;3.05;;
51252;SDS011;38936;47.808;19.936;2022-08-16T07:11:24;5.22;;;3.08;;
51252;SDS011;38936;47.808;19.936;2022-08-16T07:13:50;6.32;;;3.17;;
51252;SDS011;38936;47.808;19.936;2022-08-16T07:16:16;4.07;;;2.70;;
51252;SDS011;38936;47.808;19.936;2022-08-16T07:18:43;6.03;;;2.97;;
51252;SDS011;38936;47.808;19.936;2022-08-16T07:21:09;6.30;;;3.33;;
51252;SDS011;38936;47.808;19.936;2022-08-16T07:23:39;7.75;;;3.33;;
51252;SDS011;38936;47.808;19.936;2022-08-16T07:26:06;6.85;;;3.70;;
51252;SDS011;38936;47.808;19.936;2022-08-16T07:28:35;7.57;;;3.80;;
51252;SDS011;38936;47.808;19.936;2022-08-16T07:31:01;4.68;;;3.42;;
51252;SDS011;38936;47.808;19.936;2022-08-16T07:33:29;5.50;;;3.33;;
51252;SDS011;38936;47.808;19.936;2022-08-16T07:35:56;7.15;;;3.40;;
51252;SDS011;38936;47.808;19.936;2022-08-16T07:38:22;6.43;;;3.45;;
51252;SDS011;38936;47.808;19.936;2022-08-16T07:40:51;5.70;;;3.78;;
51252;SDS011;38936;47.808;19.936;2022-08-16T07:43:21;6.60;;;3.33;;
51252;SDS011;38936;47.808;19.936;2022-08-16T07:45:48;11.73;;;3.33;;
51252;SDS011;38936;47.808;19.936;2022-08-16T07:48:14;5.38;;;3.95;;
51252;SDS011;38936;47.808;19.936;2022-08-16T07:50:40;6.20;;;3.38;;
51252;SDS011;38936;47.808;19.936;2022-08-16T07:53:06;6.68;;;3.83;;
51252;SDS011;38936;47.808;19.936;2022-08-16T07:55:32;7.93;;;3.72;;
51252;SDS011;38936;47.808;19.936;2022-08-16T07:57:58;5.60;;;3.42;;
51252;SDS011;38936;47.808;19.936;2022-08-16T08:00:24;7.70;;;3.60;;
51252;SDS011;38936;47.808;19.936;2022-08-16T08:02:49;7.00;;;3.10;;
51252;SDS011;38936;47.808;19.936;2022-08-16T08:05:15;5.10;;;3.28;;
51252;SDS011;38936;47.808;19.936;2022-08-16T08:07:41;11.35;;;3.30;;
51252;SDS011;38936;47.808;19.936;2022-08-16T08:10:07;4.25;;;3.35;;
51252;SDS011;38936;47.808;19.936;2022-08-16T08:12:33;8.75;;;3.47;;
51252;SDS011;38936;47.808;19.936;2022-08-16T08:14:59;5.03;;;3.45;;
51252;SDS011;38936;47.808;19.936;2022-08-16T08:17:25;6.68;;;3.90;;
51252;SDS011;38936;47.808;19.936;2022-08-16T08:19:53;4.13;;;3.08;;
51252;SDS011;38936;47.808;19.936;2022-08-16T08:22:19;3.72;;;3.15;;
51252;SDS011;38936;47.808;19.936;2022-08-16T08:24:46;9.02;;;3.72;;
51252;SDS011;38936;47.808;19.936;2022-08-16T08:27:12;4.97;;;3.65;;
51252;SDS011;38936;47.808;19.936;2022-08-16T08:29:38;6.13;;;3.67;;
51252;SDS011;38936;47.808;19.936;2022-08-16T08:32:05;7.57;;;3.90;;
51252;SDS011;38936;47.808;19.936;2022-08-16T08:34:32;6.88;;;4.25;;
51252;SDS011;38936;47.808;19.936;2022-08-16T08:36:57;6.75;;;3.65;;
51252;SDS011;38936;47.808;19.936;2022-08-16T08:39:23;4.85;;;3.78;;
51252;SDS011;38936;47.808;19.936;2022-08-16T08:41:49;6.63;;;3.45;;
51252;SDS011;38936;47.808;19.936;2022-08-16T08:44:16;5.13;;;3.05;;
51252;SDS011;38936;47.808;19.936;2022-08-16T08:46:42;7.47;;;3.47;;
51252;SDS011;38936;47.808;19.936;2022-08-16T08:49:08;5.05;;;3.58;;
51252;SDS011;38936;47.808;19.936;2022-08-16T08:51:34;5.40;;;3.45;;
51252;SDS011;38936;47.808;19.936;2022-08-16T08:54:03;7.93;;;4.35;;
51252;SDS011;38936;47.808;19.936;2022-08-16T08:56:29;6.38;;;3.00;;
51252;SDS011;38936;47.808;19.936;2022-08-16T08:58:55;7.68;;;4.00;;
51252;SDS011;38936;47.808;19.936;2022-08-16T09:01:23;4.97;;;3.30;;
51252;SDS011;38936;47.808;19.936;2022-08-16T09:03:53;5.70;;;3.97;;
51252;SDS011;38936;47.808;19.936;2022-08-16T09:06:18;10.15;;;3.65;;
51252;SDS011;38936;47.808;19.936;2022-08-16T09:08:44;12.88;;;3.83;;
51252;SDS011;38936;47.808;19.936;2022-08-16T09:11:10;5.63;;;3.80;;
51252;SDS011;38936;47.808;19.936;2022-08-16T09:13:35;4.53;;;3.53;;
51252;SDS011;38936;47.808;19.936;2022-08-16T09:16:01;6.63;;;3.38;;
51252;SDS011;38936;47.808;19.936;2022-08-16T09:18:27;9.40;;;3.78;;
51252;SDS011;38936;47.808;19.936;2022-08-16T09:20:54;5.05;;;3.60;;
51252;SDS011;38936;47.808;19.936;2022-08-16T09:23:21;7.13;;;3.53;;
51252;SDS011;38936;47.808;19.936;2022-08-16T09:25:49;8.70;;;3.42;;
51252;SDS011;38936;47.808;19.936;2022-08-16T09:28:15;21.58;;;4.07;;
51252;SDS011;38936;47.808;19.936;2022-08-16T09:30:41;12.43;;;3.92;;
51252;SDS011;38936;47.808;19.936;2022-08-16T09:33:07;11.80;;;3.35;;
51252;SDS011;38936;47.808;19.936;2022-08-16T09:35:34;12.70;;;3.78;;
51252;SDS011;38936;47.808;19.936;2022-08-16T09:38:01;5.72;;;3.35;;
51252;SDS011;38936;47.808;19.936;2022-08-16T09:40:27;9.93;;;3.70;;
51252;SDS011;38936;47.808;19.936;2022-08-16T09:42:53;11.50;;;3.78;;
51252;SDS011;38936;47.808;19.936;2022-08-16T09:45:22;9.43;;;3.83;;
51252;SDS011;38936;47.808;19.936;2022-08-16T09:47:52;8.23;;;3.50;;
51252;SDS011;38936;47.808;19.936;2022-08-16T09:50:19;6.78;;;2.92;;
51252;SDS011;38936;47.808;19.936;2022-08-16T09:52:45;6.80;;;3.25;;
51252;SDS011;38936;47.808;19.936;2022-08-16T09:55:11;7.65;;;3.10;;
51252;SDS011;38936;47.808;19.936;2022-08-16T09:57:38;11.20;;;3.42;;
51252;SDS011;38936;47.808;19.936;2022-08-16T10:00:06;4.82;;;3.65;;
51252;SDS011;38936;47.808;19.936;2022-08-16T10:02:34;4.93;;;3.20;;
51252;SDS011;38936;47.808;19.936;2022-08-16T10:05:00;3.78;;;3.05;;
51252;SDS011;38936;47.808;19.936;2022-08-16T10:07:26;8.55;;;3.05;;
51252;SDS011;38936;47.808;19.936;2022-08-16T10:09:53;3.50;;;2.78;;
51252;SDS011;38936;47.808;19.936;2022-08-16T10:12:19;5.18;;;3.30;;
51252;SDS011;38936;47.808;19.936;2022-08-16T10:15:04;7.70;;;3.58;;
51252;SDS011;38936;47.808;19.936;2022-08-16T10:17:32;8.05;;;3.42;;
51252;SDS011;38936;47.808;19.936;2022-08-16T10:19:58;6.15;;;3.05;;
51252;SDS011;38936;47.808;19.936;2022-08-16T10:22:24;4.03;;;2.80;;
51252;SDS011;38936;47.808;19.936;2022-08-16T10:24:50;3.97;;;2.70;;
51252;SDS011;38936;47.808;19.936;2022-08-16T10:27:16;4.38;;;2.95;;
51252;SDS011;38936;47.808;19.936;2022-08-16T10:29:41;5.65;;;3.30;;
51252;SDS011;38936;47.808;19.936;2022-08-16T10:32:07;6.72;;;2.90;;
51252;SDS011;38936;47.808;19.936;2022-08-16T10:34:33;6.80;;;2.92;;
51252;SDS011;38936;47.808;19.936;2022-08-16T10:36:59;3.50;;;3.17;;
51252;SDS011;38936;47.808;19.936;2022-08-16T10:39:26;8.77;;;2.67;;
51252;SDS011;38936;47.808;19.936;2022-08-16T10:41:52;11.52;;;4.18;;
51252;SDS011;38936;47.808;19.936;2022-08-16T10:44:18;7.97;;;3.83;;
51252;SDS011;38936;47.808;19.936;2022-08-16T10:46:43;9.25;;;3.20;;
51252;SDS011;38936;47.808;19.936;2022-08-16T10:49:09;7.00;;;4.03;;
51252;SDS011;38936;47.808;19.936;2022-08-16T10:51:36;7.50;;;4.50;;
51252;SDS011;38936;47.808;19.936;2022-08-16T10:54:03;12.45;;;4.07;;
51252;SDS011;38936;47.808;19.936;2022-08-16T10:56:30;10.43;;;4.10;;
51252;SDS011;38936;47.808;19.936;2022-08-16T10:58:56;9.93;;;3.75;;
51252;SDS011;38936;47.808;19.936;2022-08-16T11:01:23;9.77;;;4.18;;
51252;SDS011;38936;47.808;19.936;2022-08-16T11:03:50;5.90;;;3.67;;
51252;SDS011;38936;47.808;19.936;2022-08-16T11:06:16;10.95;;;4.43;;
51252;SDS011;38936;47.808;19.936;2022-08-16T11:08:42;10.27;;;3.58;;
51252;SDS011;38936;47.808;19.936;2022-08-16T11:11:08;3.97;;;3.22;;
51252;SDS011;38936;47.808;19.936;2022-08-16T11:13:36;4.00;;;3.38;;
51252;SDS011;38936;47.808;19.936;2022-08-16T11:16:01;5.13;;;3.00;;
51252;SDS011;38936;47.808;19.936;2022-08-16T11:18:28;8.40;;;2.80;;
51252;SDS011;38936;47.808;19.936;2022-08-16T11:20:55;4.80;;;3.45;;
51252;SDS011;38936;47.808;19.936;2022-08-16T11:23:22;7.45;;;3.90;;
51252;SDS011;38936;47.808;19.936;2022-08-16T11:25:48;7.47;;;3.30;;
51252;SDS011;38936;47.808;19.936;2022-08-16T11:28:14;6.15;;;3.72;;
51252;SDS011;38936;47.808;19.936;2022-08-16T11:30:40;4.80;;;2.95;;
51252;SDS011;38936;47.808;19.936;2022-08-16T11:33:07;6.32;;;3.53;;
51252;SDS011;38936;47.808;19.936;2022-08-16T11:35:33;7.18;;;3.58;;
51252;SDS011;38936;47.808;19.936;2022-08-16T11:38:04;6.03;;;3.03;;
51252;SDS011;38936;47.808;19.936;2022-08-16T11:40:41;8.07;;;3.90;;
51252;SDS011;38936;47.808;19.936;2022-08-16T11:43:14;4.18;;;2.97;;
51252;SDS011;38936;47.808;19.936;2022-08-16T11:45:44;9.55;;;3.28;;
51252;SDS011;38936;47.808;19.936;2022-08-16T11:48:11;3.75;;;3.13;;
51252;SDS011;38936;47.808;19.936;2022-08-16T11:50:38;5.82;;;2.92;;
51252;SDS011;38936;47.808;19.936;2022-08-16T11:53:05;3.63;;;2.80;;
51252;SDS011;38936;47.808;19.936;2022-08-16T11:55:31;5.95;;;3.45;;
51252;SDS011;38936;47.808;19.936;2022-08-16T11:57:57;4.40;;;2.95;;
51252;SDS011;38936;47.808;19.936;2022-08-16T12:00:24;4.30;;;2.63;;
51252;SDS011;38936;47.808;19.936;2022-08-16T12:02:50;5.40;;;3.05;;
51252;SDS011;38936;47.808;19.936;2022-08-16T12:05:16;5.20;;;3.08;;
51252;SDS011;38936;47.808;19.936;2022-08-16T12:07:41;8.40;;;2.95;;
51252;SDS011;38936;47.808;19.936;2022-08-16T12:10:09;7.00;;;2.83;;
51252;SDS011;38936;47.808;19.936;2022-08-16T12:12:37;5.15;;;2.22;;
51252;SDS011;38936;47.808;19.936;2022-08-16T12:15:03;6.07;;;2.92;;
51252;SDS011;38936;47.808;19.936;2022-08-16T12:17:30;2.80;;;2.40;;
51252;SDS011;38936;47.808;19.936;2022-08-16T12:19:56;6.68;;;2.78;;
51252;SDS011;38936;47.808;19.936;2022-08-16T12:22:22;4.25;;;2.50;;
51252;SDS011;38936;47.808;19.936;2022-08-16T12:24:49;3.40;;;2.13;;
51252;SDS011;38936;47.808;19.936;2022-08-16T12:27:14;5.38;;;2.58;;
51252;SDS011;38936;47.808;19.936;2022-08-16T12:29:40;4.40;;;2.50;;
51252;SDS011;38936;47.808;19.936;2022-08-16T12:32:06;4.35;;;2.58;;
51252;SDS011;38936;47.808;19.936;2022-08-16T12:34:31;3.00;;;2.20;;
51252;SDS011;38936;47.808;19.936;2022-08-16T12:36:58;3.10;;;2.60;;
51252;SDS011;38936;47.808;19.936;2022-08-16T12:39:26;8.32;;;2.42;;
51252;SDS011;38936;47.808;19.936;2022-08-16T12:41:53;2.83;;;2.38;;
51252;SDS011;38936;47.808;19.936;2022-08-16T12:44:18;2.95;;;2.47;;
51252;SDS011;38936;47.808;19.936;2022-08-16T12:46:44;4.90;;;2.30;;
51252;SDS011;38936;47.808;19.936;2022-08-16T12:49:30;4.75;;;2.47;;
51252;SDS011;38936;47.808;19.936;2022-08-16T12:51:56;6.88;;;2.33;;
51252;SDS011;38936;47.808;19.936;2022-08-16T12:54:21;8.50;;;2.35;;
51252;SDS011;38936;47.808;19.936;2022-08-16T12:56:47;16.77;;;3.70;;
51252;SDS011;38936;47.808;19.936;2022-08-16T12:59:13;11.48;;;3.55;;
51252;SDS011;38936;47.808;19.936;2022-08-16T13:01:39;15.32;;;4.32;;
51252;SDS011;38936;47.808;19.936;2022-08-16T13:04:06;5.28;;;2.85;;
51252;SDS011;38936;47.808;19.936;2022-08-16T13:06:33;4.18;;;2.50;;
51252;SDS011;38936;47.808;19.936;2022-08-16T13:09:00;5.13;;;2.53;;
51252;SDS011;38936;47.808;19.936;2022-08-16T13:11:42;4.72;;;2.97;;
51252;SDS011;38936;47.808;19.936;2022-08-16T13:14:13;4.10;;;2.78;;
51252;SDS011;38936;47.808;19.936;2022-08-16T13:16:39;3.58;;;2.95;;
51252;SDS011;38936;47.808;19.936;2022-08-16T13:19:06;4.10;;;3.40;;
51252;SDS011;38936;47.808;19.936;2022-08-16T13:21:31;7.35;;;4.20;;
51252;SDS011;38936;47.808;19.936;2022-08-16T13:23:57;4.85;;;3.03;;
51252;SDS011;38936;47.808;19.936;2022-08-16T13:26:23;9.18;;;3.05;;
51252;SDS011;38936;47.808;19.936;2022-08-16T13:28:49;7.80;;;3.50;;
51252;SDS011;38936;47.808;19.936;2022-08-16T13:31:15;6.43;;;3.05;;
51252;SDS011;38936;47.808;19.936;2022-08-16T13:33:41;7.75;;;3.35;;
51252;SDS011;38936;47.808;19.936;2022-08-16T13:36:08;5.53;;;4.20;;
51252;SDS011;38936;47.808;19.936;2022-08-16T13:38:36;9.45;;;3.65;;
51252;SDS011;38936;47.808;19.936;2022-08-16T13:41:03;6.20;;;3.60;;
51252;SDS011;38936;47.808;19.936;2022-08-16T13:43:30;11.23;;;3.42;;
51252;SDS011;38936;47.808;19.936;2022-08-16T13:45:56;4.85;;;2.90;;
51252;SDS011;38936;47.808;19.936;2022-08-16T13:48:25;6.22;;;2.83;;
51252;SDS011;38936;47.808;19.936;2022-08-16T13:50:54;5.00;;;2.92;;
51252;SDS011;38936;47.808;19.936;2022-08-16T13:53:21;4.97;;;2.85;;
51252;SDS011;38936;47.808;19.936;2022-08-16T13:55:48;3.97;;;2.53;;
51252;SDS011;38936;47.808;19.936;2022-08-16T13:58:14;7.70;;;3.13;;
51252;SDS011;38936;47.808;19.936;2022-08-16T14:00:40;4.47;;;2.42;;
51252;SDS011;38936;47.808;19.936;2022-08-16T14:03:06;10.82;;;3.28;;
51252;SDS011;38936;47.808;19.936;2022-08-16T14:05:33;6.47;;;3.10;;
51252;SDS011;38936;47.808;19.936;2022-08-16T14:07:58;5.30;;;2.95;;
51252;SDS011;38936;47.808;19.936;2022-08-16T14:10:24;4.30;;;3.17;;
51252;SDS011;38936;47.808;19.936;2022-08-16T14:12:50;3.70;;;2.90;;
51252;SDS011;38936;47.808;19.936;2022-08-16T14:15:16;8.70;;;2.97;;
51252;SDS011;38936;47.808;19.936;2022-08-16T14:17:43;7.68;;;3.60;;
51252;SDS011;38936;47.808;19.936;2022-08-16T14:20:09;3.30;;;2.88;;
51252;SDS011;38936;47.808;19.936;2022-08-16T14:22:36;4.38;;;2.80;;
51252;SDS011;38936;47.808;19.936;2022-08-16T14:25:05;5.93;;;2.83;;
51252;SDS011;38936;47.808;19.936;2022-08-16T14:27:32;4.95;;;3.15;;
51252;SDS011;38936;47.808;19.936;2022-08-16T14:29:58;7.13;;;2.92;;
51252;SDS011;38936;47.808;19.936;2022-08-16T14:32:27;3.20;;;2.50;;
51252;SDS011;38936;47.808;19.936;2022-08-16T14:34:55;4.97;;;2.40;;
51252;SDS011;38936;47.808;19.936;2022-08-16T14:37:22;5.57;;;3.08;;
51252;SDS011;38936;47.808;19.936;2022-08-16T14:39:49;5.18;;;1.98;;